createdAt,value
2018-09-13T00:00:24.592Z,15.38
2018-09-13T00:02:55.243Z,15.36
2018-09-13T00:05:25.943Z,15.33
2018-09-13T00:07:56.807Z,15.40
2018-09-13T00:10:27.532Z,15.33
2018-09-13T00:12:58.437Z,15.33
2018-09-13T00:15:29.240Z,15.30
2018-09-13T00:18:00.078Z,15.32
2018-09-13T00:20:30.925Z,15.34
2018-09-13T00:23:01.644Z,15.29
2018-09-13T00:25:32.588Z,15.28
2018-09-13T00:28:03.331Z,15.27
2018-09-13T00:30:34.008Z,15.26
2018-09-13T00:33:04.721Z,15.35
2018-09-13T00:35:35.481Z,15.29
2018-09-13T00:38:06.144Z,15.20
2018-09-13T00:40:36.988Z,15.26
2018-09-13T00:43:07.811Z,15.14
2018-09-13T00:45:38.601Z,15.11
2018-09-13T00:48:09.358Z,15.12
2018-09-13T00:50:40.162Z,15.14
2018-09-13T00:53:16.591Z,15.05
2018-09-13T00:55:47.450Z,15.03
2018-09-13T00:58:20.004Z,15.04
2018-09-13T01:00:51.012Z,15.07
2018-09-13T01:03:21.760Z,15.03
2018-09-13T01:05:52.678Z,14.99
2018-09-13T01:08:24.481Z,15.00
2018-09-13T01:10:55.339Z,15.00
2018-09-13T01:13:26.003Z,15.05
2018-09-13T01:15:56.703Z,15.03
2018-09-13T01:18:27.385Z,15.02
2018-09-13T01:20:58.196Z,15.00
2018-09-13T01:23:28.948Z,15.01
2018-09-13T01:26:00.173Z,15.04
2018-09-13T01:28:31.736Z,15.04
2018-09-13T01:31:03.805Z,15.04
2018-09-13T01:33:34.653Z,15.06
2018-09-13T01:36:05.408Z,15.12
2018-09-13T01:38:36.147Z,15.30
2018-09-13T01:41:07.028Z,15.54
2018-09-13T01:43:37.702Z,15.58
2018-09-13T01:46:08.528Z,15.52
2018-09-13T01:48:39.213Z,15.45
2018-09-13T01:51:10.732Z,15.37
2018-09-13T01:53:41.742Z,15.33
2018-09-13T01:56:12.559Z,15.31
2018-09-13T01:58:43.628Z,15.27
2018-09-13T02:01:14.403Z,15.21
2018-09-13T02:03:46.945Z,15.17
2018-09-13T02:06:20.422Z,15.12
2018-09-13T02:11:29.529Z,15.04
2018-09-13T02:14:00.345Z,15.08
2018-09-13T02:16:31.244Z,15.00
2018-09-13T02:19:02.028Z,14.96
2018-09-13T02:21:35.326Z,14.92
2018-09-13T02:24:06.140Z,14.97
2018-09-13T02:26:36.991Z,14.90
2018-09-13T02:29:08.012Z,14.92
2018-09-13T02:31:38.826Z,14.96
2018-09-13T02:34:09.574Z,14.99
2018-09-13T02:36:40.670Z,14.89
2018-09-13T02:39:11.827Z,14.75
2018-09-13T02:41:42.800Z,14.66
2018-09-13T02:44:13.512Z,14.73
2018-09-13T02:46:45.497Z,14.74
2018-09-13T02:49:16.343Z,14.69
2018-09-13T02:51:47.007Z,14.67
2018-09-13T02:54:17.843Z,14.58
2018-09-13T02:56:48.649Z,14.47
2018-09-13T02:59:19.436Z,14.43
2018-09-13T03:01:50.282Z,14.43
2018-09-13T03:04:21.084Z,14.42
2018-09-13T03:06:51.869Z,14.47
2018-09-13T03:09:22.686Z,14.46
2018-09-13T03:11:53.618Z,14.48
2018-09-13T03:14:24.379Z,14.45
2018-09-13T03:16:55.124Z,14.48
2018-09-13T03:19:25.908Z,14.52
2018-09-13T03:21:56.765Z,14.50
2018-09-13T03:24:27.668Z,14.47
2018-09-13T03:26:58.298Z,14.47
2018-09-13T03:29:29.061Z,14.44
2018-09-13T03:31:59.808Z,14.43
2018-09-13T03:34:30.620Z,14.47
2018-09-13T03:37:01.342Z,14.51
2018-09-13T03:39:32.083Z,14.49
2018-09-13T03:42:03.022Z,14.50
2018-09-13T03:44:33.717Z,14.52
2018-09-13T03:47:04.676Z,14.53
2018-09-13T03:49:35.298Z,14.59
2018-09-13T03:52:06.048Z,14.55
2018-09-13T03:54:36.913Z,14.59
2018-09-13T03:57:07.757Z,14.58
2018-09-13T03:59:38.598Z,14.58
2018-09-13T04:02:09.479Z,14.56
2018-09-13T04:04:40.228Z,14.56
2018-09-13T04:07:11.063Z,14.52
2018-09-13T04:09:41.810Z,14.47
2018-09-13T04:12:12.656Z,14.45
2018-09-13T04:14:43.365Z,14.44
2018-09-13T04:17:14.125Z,14.45
2018-09-13T04:19:46.038Z,14.47
2018-09-13T04:22:17.496Z,14.48
2018-09-13T04:24:48.172Z,14.46
2018-09-13T04:27:19.013Z,14.49
2018-09-13T04:29:49.737Z,14.47
2018-09-13T04:32:28.048Z,14.47
2018-09-13T04:34:58.829Z,14.61
2018-09-13T04:37:29.678Z,14.54
2018-09-13T04:40:00.403Z,14.49
2018-09-13T04:42:31.182Z,14.46
2018-09-13T04:45:01.928Z,14.48
2018-09-13T04:47:32.780Z,14.46
2018-09-13T04:50:03.794Z,14.41
2018-09-13T04:52:34.722Z,14.43
2018-09-13T04:55:05.566Z,14.43
2018-09-13T04:57:36.384Z,14.37
2018-09-13T05:00:07.348Z,14.30
2018-09-13T05:02:38.412Z,14.29
2018-09-13T05:05:09.549Z,14.33
2018-09-13T05:07:40.397Z,14.32
2018-09-13T05:10:11.247Z,14.26
2018-09-13T05:12:43.139Z,14.24
2018-09-13T05:15:14.929Z,14.23
2018-09-13T05:17:48.876Z,14.28
2018-09-13T05:20:22.979Z,14.34
2018-09-13T05:22:54.561Z,14.25
2018-09-13T05:25:30.646Z,14.22
2018-09-13T05:28:02.716Z,14.29
2018-09-13T05:30:34.646Z,14.26
2018-09-13T05:33:07.112Z,14.30
2018-09-13T05:35:39.173Z,14.26
2018-09-13T05:38:10.005Z,14.31
2018-09-13T05:40:47.376Z,14.27
2018-09-13T05:43:20.962Z,14.33
2018-09-13T05:45:56.504Z,14.34
2018-09-13T05:48:27.253Z,14.31
2018-09-13T05:50:58.747Z,14.34
2018-09-13T05:53:29.646Z,14.28
2018-09-13T05:56:01.711Z,14.26
2018-09-13T05:58:34.993Z,14.31
2018-09-13T06:01:06.397Z,14.26
2018-09-13T06:03:37.470Z,14.27
2018-09-13T06:06:09.224Z,14.24
2018-09-13T06:08:41.263Z,14.22
2018-09-13T06:11:12.037Z,14.28
2018-09-13T06:13:46.419Z,14.32
2018-09-13T06:16:17.148Z,14.33
2018-09-13T06:18:48.090Z,14.28
2018-09-13T06:21:18.808Z,14.24
2018-09-13T06:23:49.517Z,14.35
2018-09-13T06:26:20.345Z,14.32
2018-09-13T06:28:51.067Z,14.35
2018-09-13T06:31:22.009Z,14.33
2018-09-13T06:33:52.806Z,14.42
2018-09-13T06:36:23.615Z,14.43
2018-09-13T06:38:54.641Z,14.44
2018-09-13T06:41:29.034Z,14.44
2018-09-13T06:44:07.329Z,14.48
2018-09-13T06:46:38.135Z,14.49
2018-09-13T06:49:09.161Z,14.50
2018-09-13T06:54:42.798Z,14.65
2018-09-13T06:57:13.583Z,14.71
2018-09-13T06:59:44.416Z,14.65
2018-09-13T07:02:16.132Z,14.61
2018-09-13T07:04:49.777Z,14.58
2018-09-13T07:07:20.994Z,14.59
2018-09-13T07:09:51.722Z,14.56
2018-09-13T07:12:24.481Z,14.64
2018-09-13T07:14:55.237Z,14.59
2018-09-13T07:17:26.093Z,14.60
2018-09-13T07:19:57.234Z,14.60
2018-09-13T07:22:30.930Z,14.59
2018-09-13T07:25:02.896Z,14.61
2018-09-13T07:27:34.633Z,14.69
2018-09-13T07:30:06.013Z,14.67
2018-09-13T07:32:44.937Z,14.62
2018-09-13T07:35:15.865Z,14.61
2018-09-13T07:37:47.434Z,14.64
2018-09-13T07:40:18.571Z,14.62
2018-09-13T07:42:49.483Z,14.67
2018-09-13T07:45:20.261Z,14.62
2018-09-13T07:47:51.987Z,14.62
2018-09-13T07:50:23.174Z,14.67
2018-09-13T07:52:54.183Z,14.67
2018-09-13T07:55:25.974Z,14.68
2018-09-13T07:57:56.719Z,14.74
2018-09-13T08:00:27.534Z,14.77
2018-09-13T08:02:58.415Z,14.81
2018-09-13T08:05:29.503Z,14.80
2018-09-13T08:08:00.228Z,14.80
2018-09-13T08:10:31.016Z,14.84
2018-09-13T08:13:01.923Z,14.88
2018-09-13T08:15:32.678Z,14.89
2018-09-13T08:18:03.600Z,14.92
2018-09-13T08:20:34.392Z,14.96
2018-09-13T08:23:05.544Z,14.95
2018-09-13T08:25:54.902Z,14.96
2018-09-13T08:28:50.677Z,14.95
2018-09-13T08:31:52.311Z,15.03
2018-09-13T08:37:49.484Z,15.16
2018-09-13T08:40:36.509Z,15.14
2018-09-13T08:43:11.820Z,15.24
2018-09-13T08:45:43.199Z,15.28
2018-09-13T08:48:14.033Z,15.30
2018-09-13T08:50:45.140Z,15.35
2018-09-13T08:53:15.966Z,15.40
2018-09-13T08:55:47.930Z,15.33
2018-09-13T08:58:19.619Z,15.24
2018-09-13T09:00:51.953Z,15.25
2018-09-13T09:03:24.250Z,15.33
2018-09-13T09:05:55.759Z,15.34
2018-09-13T09:08:27.923Z,15.38
2018-09-13T09:11:02.025Z,15.37
2018-09-13T09:13:32.913Z,15.44
2018-09-13T09:16:05.288Z,15.54
2018-09-13T09:18:36.084Z,15.58
2018-09-13T09:21:10.268Z,15.62
2018-09-13T09:23:49.644Z,15.71
2018-09-13T09:26:22.335Z,15.81
2018-09-13T09:28:53.243Z,15.87
2018-09-13T09:31:31.283Z,15.98
2018-09-13T09:34:02.030Z,16.08
2018-09-13T09:36:32.880Z,16.12
2018-09-13T09:39:05.929Z,16.29
2018-09-13T09:41:36.862Z,16.30
2018-09-13T09:44:07.969Z,16.23
2018-09-13T09:46:39.157Z,16.30
2018-09-13T09:49:09.936Z,16.30
2018-09-13T09:51:48.741Z,16.34
2018-09-13T09:54:20.789Z,16.43
2018-09-13T09:56:51.603Z,16.59
2018-09-13T09:59:22.408Z,16.64
2018-09-13T10:01:59.299Z,16.68
2018-09-13T10:04:30.554Z,16.74
2018-09-13T10:07:01.470Z,16.70
2018-09-13T10:09:32.242Z,16.78
2018-09-13T10:12:03.066Z,16.90
2018-09-13T10:14:33.855Z,16.93
2018-09-13T10:17:10.672Z,16.95
2018-09-13T10:19:46.891Z,17.13
2018-09-13T10:22:22.659Z,17.28
2018-09-13T10:24:58.533Z,17.28
2018-09-13T10:27:34.427Z,17.34
2018-09-13T10:30:11.354Z,17.37
2018-09-13T10:32:47.268Z,17.39
2018-09-13T10:35:23.325Z,17.42
2018-09-13T10:37:59.303Z,17.58
2018-09-13T10:40:35.104Z,17.66
2018-09-13T10:43:10.949Z,17.75
2018-09-13T10:45:46.906Z,17.77
2018-09-13T10:48:22.820Z,17.79
2018-09-13T10:50:58.888Z,17.94
2018-09-13T10:53:29.765Z,18.21
2018-09-13T10:56:00.508Z,18.26
2018-09-13T10:58:31.481Z,18.36
2018-09-13T11:01:02.285Z,18.41
2018-09-13T11:03:33.034Z,18.36
2018-09-13T11:06:03.861Z,18.28
2018-09-13T11:08:34.715Z,18.22
2018-09-13T11:11:05.632Z,18.09
2018-09-13T11:13:43.256Z,18.04
2018-09-13T11:16:14.097Z,18.03
2018-09-13T11:18:44.851Z,18.07
2018-09-13T11:21:15.661Z,18.00
2018-09-13T11:23:47.805Z,17.97
2018-09-13T11:26:18.625Z,17.95
2018-09-13T11:28:49.444Z,18.00
2018-09-13T11:31:20.245Z,17.93
2018-09-13T11:33:51.025Z,17.90
2018-09-13T11:36:21.815Z,17.88
2018-09-13T11:38:54.657Z,17.92
2018-09-13T11:41:25.420Z,18.03
2018-09-13T11:43:58.017Z,18.37
2018-09-13T11:46:42.402Z,18.80
2018-09-13T11:49:14.395Z,19.28
2018-09-13T11:51:46.228Z,19.82
2018-09-13T11:54:16.945Z,20.43
2018-09-13T11:56:47.649Z,20.95
2018-09-13T11:59:18.353Z,21.35
2018-09-13T12:01:49.124Z,21.40
2018-09-13T12:04:19.917Z,21.37
2018-09-13T12:06:50.682Z,21.58
2018-09-13T12:09:21.650Z,21.89
2018-09-13T12:11:52.837Z,22.23
2018-09-13T12:14:23.595Z,22.53
2018-09-13T12:16:54.401Z,22.70
2018-09-13T12:19:25.229Z,22.70
2018-09-13T12:21:56.178Z,22.62
2018-09-13T12:24:26.890Z,22.51
2018-09-13T12:26:57.781Z,22.12
2018-09-13T12:29:28.917Z,21.94
2018-09-13T12:31:59.856Z,21.75
2018-09-13T12:34:30.643Z,21.53
2018-09-13T12:37:01.448Z,21.31
2018-09-13T12:39:33.265Z,21.20
2018-09-13T12:42:04.083Z,21.10
2018-09-13T12:44:35.027Z,21.02
2018-09-13T12:47:05.877Z,20.96
2018-09-13T12:49:37.061Z,21.03
2018-09-13T12:52:07.895Z,21.14
2018-09-13T12:54:38.667Z,21.21
2018-09-13T12:57:09.592Z,21.28
2018-09-13T12:59:40.860Z,21.64
2018-09-13T13:02:11.700Z,21.92
2018-09-13T13:04:42.500Z,22.34
2018-09-13T13:07:13.170Z,22.60
2018-09-13T13:09:43.935Z,22.58
2018-09-13T13:12:14.891Z,22.56
2018-09-13T13:14:45.830Z,22.69
2018-09-13T13:17:16.590Z,22.92
2018-09-13T13:19:47.519Z,23.16
2018-09-13T13:22:18.351Z,23.40
2018-09-13T13:24:49.080Z,23.54
2018-09-13T13:27:19.859Z,23.58
2018-09-13T13:29:50.613Z,23.47
2018-09-13T13:32:21.388Z,23.35
2018-09-13T13:34:52.100Z,23.09
2018-09-13T13:37:22.793Z,22.93
2018-09-13T13:39:53.564Z,22.65
2018-09-13T13:42:24.270Z,22.38
2018-09-13T13:44:54.967Z,22.12
2018-09-13T13:47:25.686Z,21.79
2018-09-13T13:49:56.405Z,21.62
2018-09-13T13:52:27.094Z,21.44
2018-09-13T13:54:57.960Z,21.24
2018-09-13T13:57:28.708Z,21.07
2018-09-13T13:59:59.487Z,20.92
2018-09-13T14:02:30.231Z,20.81
2018-09-13T14:05:01.238Z,20.67
2018-09-13T14:07:32.013Z,20.60
2018-09-13T14:10:02.781Z,20.49
2018-09-13T14:12:33.523Z,20.39
2018-09-13T14:15:04.274Z,20.32
2018-09-13T14:17:35.080Z,20.29
2018-09-13T14:20:05.984Z,20.27
2018-09-13T14:22:36.719Z,20.27
2018-09-13T14:25:08.280Z,20.31
2018-09-13T14:27:39.057Z,20.43
2018-09-13T14:30:10.361Z,20.63
2018-09-13T14:35:42.617Z,21.98
2018-09-13T14:40:58.991Z,23.03
2018-09-13T14:43:29.831Z,23.28
2018-09-13T14:46:00.877Z,23.40
2018-09-13T14:48:31.696Z,23.34
2018-09-13T14:51:03.055Z,23.24
2018-09-13T14:53:34.352Z,23.03
2018-09-13T14:56:05.095Z,22.82
2018-09-13T14:58:35.862Z,22.67
2018-09-13T15:01:06.830Z,22.48
2018-09-13T15:03:37.553Z,22.43
2018-09-13T15:06:09.037Z,22.44
2018-09-13T15:08:39.796Z,22.27
2018-09-13T15:11:10.543Z,22.18
2018-09-13T15:13:41.262Z,22.04
2018-09-13T15:16:11.976Z,22.09
2018-09-13T15:18:43.327Z,22.07
2018-09-13T15:21:14.103Z,22.19
2018-09-13T15:23:44.893Z,22.29
2018-09-13T15:26:15.712Z,22.68
2018-09-13T15:28:46.489Z,22.85
2018-09-13T15:31:17.328Z,23.18
2018-09-13T15:33:48.084Z,23.53
2018-09-13T15:36:18.813Z,23.72
2018-09-13T15:38:49.510Z,23.94
2018-09-13T15:41:20.217Z,24.02
2018-09-13T15:43:51.416Z,24.15
2018-09-13T15:46:22.164Z,24.26
2018-09-13T15:48:52.910Z,24.24
2018-09-13T15:51:23.662Z,24.16
2018-09-13T15:53:54.406Z,24.07
2018-09-13T15:56:25.184Z,24.03
2018-09-13T15:58:56.001Z,24.06
2018-09-13T16:01:26.734Z,24.14
2018-09-13T16:03:57.446Z,24.02
2018-09-13T16:06:28.264Z,23.85
2018-09-13T16:08:59.014Z,23.70
2018-09-13T16:11:29.745Z,23.51
2018-09-13T16:14:00.508Z,23.46
2018-09-13T16:16:32.820Z,23.43
2018-09-13T16:19:05.394Z,23.38
2018-09-13T16:21:36.427Z,23.07
2018-09-13T16:24:07.377Z,22.78
2018-09-13T16:26:38.786Z,22.41
2018-09-13T16:29:09.641Z,22.38
2018-09-13T16:31:40.453Z,22.34
2018-09-13T16:34:11.317Z,22.25
2018-09-13T16:36:47.303Z,22.15
2018-09-13T16:39:27.037Z,22.06
2018-09-13T16:42:03.225Z,21.93
2018-09-13T16:44:40.792Z,21.83
2018-09-13T16:47:17.277Z,21.69
2018-09-13T16:49:48.144Z,21.52
2018-09-13T16:52:19.806Z,21.34
2018-09-13T16:54:50.725Z,21.18
2018-09-13T16:57:21.593Z,20.98
2018-09-13T16:59:52.632Z,20.81
2018-09-13T17:02:23.655Z,20.63
2018-09-13T17:04:54.477Z,20.48
2018-09-13T17:07:25.390Z,20.34
2018-09-13T17:09:56.120Z,20.22
2018-09-13T17:12:26.878Z,20.08
2018-09-13T17:14:57.849Z,19.95
2018-09-13T17:17:28.756Z,19.83
2018-09-13T17:19:59.646Z,19.70
2018-09-13T17:22:30.461Z,19.55
2018-09-13T17:25:01.196Z,19.37
2018-09-13T17:27:31.992Z,19.24
2018-09-13T17:30:02.787Z,19.12
2018-09-13T17:32:33.647Z,18.99
2018-09-13T17:35:04.560Z,18.87
2018-09-13T17:37:35.254Z,18.76
2018-09-13T17:40:06.076Z,18.62
2018-09-13T17:42:36.792Z,18.47
2018-09-13T17:45:07.609Z,18.31
2018-09-13T17:47:38.417Z,18.16
2018-09-13T17:50:09.237Z,18.00
2018-09-13T17:52:39.897Z,17.85
2018-09-13T17:55:10.619Z,17.70
2018-09-13T17:57:41.412Z,17.59
2018-09-13T18:00:13.628Z,17.47
2018-09-13T18:02:44.407Z,17.37
2018-09-13T18:05:15.175Z,17.30
2018-09-13T18:07:45.979Z,17.24
2018-09-13T18:10:16.706Z,17.14
2018-09-13T18:12:47.530Z,17.03
2018-09-13T18:15:18.545Z,16.91
2018-09-13T18:17:49.627Z,16.86
2018-09-13T18:20:21.398Z,16.76
2018-09-13T18:22:52.276Z,16.65
2018-09-13T18:25:23.039Z,16.57
2018-09-13T18:27:53.836Z,16.44
2018-09-13T18:30:24.727Z,16.39
2018-09-13T18:32:55.487Z,16.33
2018-09-13T18:35:26.317Z,16.26
2018-09-13T18:37:57.098Z,16.18
2018-09-13T18:40:28.024Z,16.12
2018-09-13T18:42:58.821Z,16.08
2018-09-13T18:46:00.754Z,16.03
2018-09-13T18:48:31.564Z,15.97
2018-09-13T18:51:02.378Z,15.91
2018-09-13T18:53:33.189Z,15.81
2018-09-13T18:56:04.018Z,15.76
2018-09-13T18:58:35.023Z,15.70
2018-09-13T19:01:05.869Z,15.79
2018-09-13T19:03:36.576Z,15.64
2018-09-13T19:06:07.834Z,15.58
2018-09-13T19:08:38.580Z,15.48
2018-09-13T19:11:09.906Z,15.40
2018-09-13T19:13:40.650Z,15.35
2018-09-13T19:16:11.699Z,15.28
2018-09-13T19:18:42.432Z,15.17
2018-09-13T19:21:13.259Z,15.11
2018-09-13T19:23:43.960Z,15.08
2018-09-13T19:26:14.721Z,15.03
2018-09-13T19:28:45.421Z,14.99
2018-09-13T19:31:16.220Z,14.94
2018-09-13T19:33:47.213Z,14.90
2018-09-13T19:36:18.341Z,14.87
2018-09-13T19:38:49.540Z,14.83
2018-09-13T19:41:20.442Z,14.82
2018-09-13T19:43:52.127Z,14.80
2018-09-13T19:46:22.888Z,14.78
2018-09-13T19:48:53.644Z,14.75
2018-09-13T19:51:24.403Z,14.71
2018-09-13T19:53:56.241Z,14.67
2018-09-13T19:56:27.018Z,14.61
2018-09-13T19:58:58.226Z,14.55
2018-09-13T20:01:28.940Z,14.48
2018-09-13T20:03:59.847Z,14.41
2018-09-13T20:06:31.514Z,14.35
2018-09-13T20:09:09.798Z,14.30
2018-09-13T20:11:40.662Z,14.23
2018-09-13T20:14:11.499Z,14.18
2018-09-13T20:16:42.337Z,14.13
2018-09-13T20:19:13.176Z,14.10
2018-09-13T20:21:43.934Z,14.04
2018-09-13T20:24:14.768Z,13.99
2018-09-13T20:26:45.710Z,14.00
2018-09-13T20:29:16.588Z,13.96
2018-09-13T20:31:47.338Z,13.89
2018-09-13T20:34:18.287Z,13.87
2018-09-13T20:36:49.117Z,13.83
2018-09-13T20:39:19.943Z,13.81
2018-09-13T20:41:50.837Z,13.82
2018-09-13T20:44:21.513Z,13.81
2018-09-13T20:46:52.240Z,13.80
2018-09-13T20:49:22.994Z,13.79
2018-09-13T20:51:53.690Z,13.75
2018-09-13T20:54:24.444Z,13.71
2018-09-13T20:56:55.508Z,13.66
2018-09-13T20:59:26.309Z,13.61
2018-09-13T21:01:57.052Z,13.54
2018-09-13T21:04:27.827Z,13.50
2018-09-13T21:06:58.574Z,13.47
2018-09-13T21:09:29.305Z,13.45
2018-09-13T21:12:00.065Z,13.43
2018-09-13T21:14:30.838Z,13.39
2018-09-13T21:17:01.635Z,13.35
2018-09-13T21:19:33.097Z,13.31
2018-09-13T21:22:03.969Z,13.30
2018-09-13T21:24:34.832Z,13.30
2018-09-13T21:27:05.576Z,13.27
2018-09-13T21:29:36.490Z,13.25
2018-09-13T21:32:07.378Z,13.23
2018-09-13T21:34:38.140Z,13.20
2018-09-13T21:37:09.241Z,13.20
2018-09-13T21:39:40.003Z,13.18
2018-09-13T21:42:10.765Z,13.15
2018-09-13T21:44:41.575Z,13.13
2018-09-13T21:47:12.295Z,13.09
2018-09-13T21:49:43.081Z,13.08
2018-09-13T21:52:13.905Z,13.07
2018-09-13T21:54:44.670Z,13.07
2018-09-13T21:57:15.503Z,13.05
2018-09-13T21:59:46.300Z,13.05
2018-09-13T22:02:17.066Z,13.07
2018-09-13T22:04:48.043Z,13.07
2018-09-13T22:07:19.882Z,13.06
2018-09-13T22:09:50.712Z,13.03
2018-09-13T22:12:21.626Z,13.02
2018-09-13T22:14:52.422Z,13.01
2018-09-13T22:17:27.153Z,13.00
2018-09-13T22:19:57.825Z,13.02
2018-09-13T22:22:28.720Z,13.01
2018-09-13T22:24:59.481Z,12.99
2018-09-13T22:27:30.277Z,12.98
2018-09-13T22:30:00.997Z,12.93
2018-09-13T22:32:31.765Z,12.91
2018-09-13T22:35:02.489Z,12.89
2018-09-13T22:37:33.700Z,12.86
2018-09-13T22:40:04.590Z,12.81
2018-09-13T22:42:35.482Z,12.78
2018-09-13T22:45:06.292Z,12.75
2018-09-13T22:47:37.064Z,12.71
2018-09-13T22:50:07.938Z,12.66
2018-09-13T22:52:38.657Z,12.62
2018-09-13T22:55:09.438Z,12.60
2018-09-13T22:57:40.250Z,12.55
2018-09-13T23:00:11.016Z,12.52
2018-09-13T23:02:46.951Z,12.47
2018-09-13T23:05:18.940Z,12.42
2018-09-13T23:07:49.711Z,12.38
2018-09-13T23:10:20.478Z,12.33
2018-09-13T23:12:51.289Z,12.29
2018-09-13T23:15:22.075Z,12.26
2018-09-13T23:17:52.846Z,12.22
2018-09-13T23:20:23.763Z,12.18
2018-09-13T23:22:54.471Z,12.14
2018-09-13T23:25:25.306Z,12.12
2018-09-13T23:27:56.017Z,12.09
2018-09-13T23:30:27.278Z,12.06
2018-09-13T23:32:58.048Z,12.02
2018-09-13T23:35:28.896Z,11.97
2018-09-13T23:37:59.668Z,11.98
2018-09-13T23:40:30.524Z,11.94
2018-09-13T23:43:01.262Z,11.91
2018-09-13T23:45:32.044Z,11.88
2018-09-13T23:48:02.832Z,11.84
2018-09-13T23:50:33.594Z,11.79
2018-09-13T23:53:04.293Z,11.76
2018-09-13T23:55:35.073Z,11.75
2018-09-13T23:58:06.052Z,11.71
